sensor_id;sensor_type;location;lat;lon;timestamp;pressure;altitude;pressure_sealevel;temperature;humidity
61384;BME280;63511;49.346;8.798;2023-03-20T00:01:54;100456.66;;;11.51;79.01
61384;BME280;63511;49.346;8.798;2023-03-20T00:04:23;100457.25;;;11.34;79.67
61384;BME280;63511;49.346;8.798;2023-03-20T00:06:50;100463.00;;;11.20;79.56
61384;BME280;63511;49.346;8.798;2023-03-20T00:09:17;100468.22;;;11.09;81.99
61384;BME280;63511;49.346;8.798;2023-03-20T00:11:45;100468.19;;;10.96;82.13
61384;BME280;63511;49.346;8.798;2023-03-20T00:14:13;100466.34;;;11.19;80.82
61384;BME280;63511;49.346;8.798;2023-03-20T00:16:41;100468.97;;;10.95;81.84
61384;BME280;63511;49.346;8.798;2023-03-20T00:19:11;100466.81;;;11.13;81.74
61384;BME280;63511;49.346;8.798;2023-03-20T00:21:39;100466.38;;;11.32;81.28
61384;BME280;63511;49.346;8.798;2023-03-20T00:24:06;100459.00;;;11.48;80.05
61384;BME280;63511;49.346;8.798;2023-03-20T00:26:33;100469.53;;;11.67;79.15
61384;BME280;63511;49.346;8.798;2023-03-20T00:29:02;100468.66;;;11.67;79.87
61384;BME280;63511;49.346;8.798;2023-03-20T00:31:29;100469.88;;;11.85;78.88
61384;BME280;63511;49.346;8.798;2023-03-20T00:33:56;100474.13;;;11.60;80.21
61384;BME280;63511;49.346;8.798;2023-03-20T00:36:23;100467.28;;;11.59;81.30
61384;BME280;63511;49.346;8.798;2023-03-20T00:38:49;100463.56;;;11.78;80.45
61384;BME280;63511;49.346;8.798;2023-03-20T00:41:20;100469.28;;;11.89;80.08
61384;BME280;63511;49.346;8.798;2023-03-20T00:43:49;100466.47;;;12.11;79.65
61384;BME280;63511;49.346;8.798;2023-03-20T00:46:18;100459.84;;;12.13;79.26
61384;BME280;63511;49.346;8.798;2023-03-20T00:48:45;100458.09;;;12.12;79.21
61384;BME280;63511;49.346;8.798;2023-03-20T00:51:12;100460.22;;;12.19;79.41
61384;BME280;63511;49.346;8.798;2023-03-20T00:53:38;100463.53;;;12.18;78.98
61384;BME280;63511;49.346;8.798;2023-03-20T00:56:08;100452.41;;;12.29;79.02
61384;BME280;63511;49.346;8.798;2023-03-20T00:58:44;100461.88;;;12.31;78.78
61384;BME280;63511;49.346;8.798;2023-03-20T01:01:13;100461.75;;;12.30;78.54
61384;BME280;63511;49.346;8.798;2023-03-20T01:03:41;100468.75;;;12.34;78.49
61384;BME280;63511;49.346;8.798;2023-03-20T01:06:08;100463.53;;;12.18;79.34
61384;BME280;63511;49.346;8.798;2023-03-20T01:08:37;100459.06;;;12.27;79.02
61384;BME280;63511;49.346;8.798;2023-03-20T01:11:04;100456.44;;;12.12;79.08
61384;BME280;63511;49.346;8.798;2023-03-20T01:13:30;100456.84;;;11.41;81.88
61384;BME280;63511;49.346;8.798;2023-03-20T01:15:57;100462.78;;;11.79;81.41
61384;BME280;63511;49.346;8.798;2023-03-20T01:18:25;100456.25;;;12.09;80.43
61384;BME280;63511;49.346;8.798;2023-03-20T01:20:52;100457.19;;;12.24;79.56
61384;BME280;63511;49.346;8.798;2023-03-20T01:23:19;100462.38;;;12.13;80.21
61384;BME280;63511;49.346;8.798;2023-03-20T01:25:46;100455.97;;;12.05;80.40
61384;BME280;63511;49.346;8.798;2023-03-20T01:28:13;100455.56;;;12.12;79.92
61384;BME280;63511;49.346;8.798;2023-03-20T01:30:41;100471.53;;;12.11;79.82
61384;BME280;63511;49.346;8.798;2023-03-20T01:33:11;100467.44;;;12.26;79.62
61384;BME280;63511;49.346;8.798;2023-03-20T01:35:38;100475.47;;;12.33;78.71
61384;BME280;63511;49.346;8.798;2023-03-20T01:38:09;100469.69;;;12.21;79.48
61384;BME280;63511;49.346;8.798;2023-03-20T01:40:39;100470.56;;;12.22;79.64
61384;BME280;63511;49.346;8.798;2023-03-20T01:43:09;100468.47;;;12.43;78.97
61384;BME280;63511;49.346;8.798;2023-03-20T01:45:38;100468.69;;;12.19;78.92
61384;BME280;63511;49.346;8.798;2023-03-20T01:48:11;100472.31;;;12.10;79.55
61384;BME280;63511;49.346;8.798;2023-03-20T01:50:39;100477.75;;;12.03;80.47
61384;BME280;63511;49.346;8.798;2023-03-20T01:53:09;100477.09;;;12.05;80.26
61384;BME280;63511;49.346;8.798;2023-03-20T01:55:38;100479.25;;;12.12;80.30
61384;BME280;63511;49.346;8.798;2023-03-20T01:58:08;100478.03;;;12.07;79.96
61384;BME280;63511;49.346;8.798;2023-03-20T02:00:36;100482.03;;;12.04;80.25
61384;BME280;63511;49.346;8.798;2023-03-20T02:03:03;100481.84;;;11.87;81.08
61384;BME280;63511;49.346;8.798;2023-03-20T02:05:31;100487.66;;;11.86;80.83
61384;BME280;63511;49.346;8.798;2023-03-20T02:08:01;100491.00;;;11.99;81.05
61384;BME280;63511;49.346;8.798;2023-03-20T02:10:28;100492.75;;;12.13;80.43
61384;BME280;63511;49.346;8.798;2023-03-20T02:12:56;100494.09;;;11.81;81.11
61384;BME280;63511;49.346;8.798;2023-03-20T02:15:24;100485.47;;;11.91;81.63
61384;BME280;63511;49.346;8.798;2023-03-20T02:17:51;100489.47;;;12.01;80.79
61384;BME280;63511;49.346;8.798;2023-03-20T02:20:20;100485.53;;;11.92;80.62
61384;BME280;63511;49.346;8.798;2023-03-20T02:22:57;100487.69;;;12.00;80.45
61384;BME280;63511;49.346;8.798;2023-03-20T02:28:24;100477.69;;;12.01;81.12
61384;BME280;63511;49.346;8.798;2023-03-20T02:31:05;100473.97;;;11.83;82.01
61384;BME280;63511;49.346;8.798;2023-03-20T02:36:27;100479.59;;;12.18;80.27
61384;BME280;63511;49.346;8.798;2023-03-20T02:39:02;100481.81;;;12.40;79.84
61384;BME280;63511;49.346;8.798;2023-03-20T02:41:32;100482.69;;;12.41;78.96
61384;BME280;63511;49.346;8.798;2023-03-20T02:44:04;100481.56;;;12.22;80.17
61384;BME280;63511;49.346;8.798;2023-03-20T02:46:35;100487.66;;;12.39;79.47
61384;BME280;63511;49.346;8.798;2023-03-20T02:49:08;100491.72;;;12.50;78.85
61384;BME280;63511;49.346;8.798;2023-03-20T02:51:38;100493.59;;;12.53;78.16
61384;BME280;63511;49.346;8.798;2023-03-20T02:54:08;100486.44;;;12.60;77.53
61384;BME280;63511;49.346;8.798;2023-03-20T02:56:36;100487.09;;;12.43;78.70
61384;BME280;63511;49.346;8.798;2023-03-20T02:59:09;100492.22;;;12.58;77.73
61384;BME280;63511;49.346;8.798;2023-03-20T03:01:39;100484.19;;;12.37;78.98
61384;BME280;63511;49.346;8.798;2023-03-20T03:04:07;100490.28;;;12.41;78.93
61384;BME280;63511;49.346;8.798;2023-03-20T03:06:35;100472.03;;;12.59;77.97
61384;BME280;63511;49.346;8.798;2023-03-20T03:09:03;100484.91;;;12.49;78.52
61384;BME280;63511;49.346;8.798;2023-03-20T03:11:33;100491.88;;;11.99;80.31
61384;BME280;63511;49.346;8.798;2023-03-20T03:14:03;100493.31;;;12.35;79.69
61384;BME280;63511;49.346;8.798;2023-03-20T03:16:32;100498.22;;;12.06;80.67
61384;BME280;63511;49.346;8.798;2023-03-20T03:19:02;100484.56;;;12.30;79.48
61384;BME280;63511;49.346;8.798;2023-03-20T03:21:30;100480.78;;;12.64;77.87
61384;BME280;63511;49.346;8.798;2023-03-20T03:23:58;100493.28;;;12.61;77.60
61384;BME280;63511;49.346;8.798;2023-03-20T03:26:26;100491.41;;;12.72;77.11
61384;BME280;63511;49.346;8.798;2023-03-20T03:28:55;100499.28;;;12.76;77.17
61384;BME280;63511;49.346;8.798;2023-03-20T03:31:25;100492.56;;;12.77;76.71
61384;BME280;63511;49.346;8.798;2023-03-20T03:33:52;100492.81;;;12.54;78.00
61384;BME280;63511;49.346;8.798;2023-03-20T03:36:21;100498.72;;;12.54;78.58
61384;BME280;63511;49.346;8.798;2023-03-20T03:38:53;100491.34;;;12.44;78.24
61384;BME280;63511;49.346;8.798;2023-03-20T03:41:22;100491.72;;;12.50;77.78
61384;BME280;63511;49.346;8.798;2023-03-20T03:43:50;100489.59;;;12.56;77.57
61384;BME280;63511;49.346;8.798;2023-03-20T03:46:23;100495.78;;;12.20;80.10
61384;BME280;63511;49.346;8.798;2023-03-20T03:48:51;100500.59;;;12.44;78.82
61384;BME280;63511;49.346;8.798;2023-03-20T03:51:21;100495.03;;;12.62;77.59
61384;BME280;63511;49.346;8.798;2023-03-20T03:53:51;100486.22;;;12.70;77.37
61384;BME280;63511;49.346;8.798;2023-03-20T03:56:20;100484.34;;;12.53;77.60
61384;BME280;63511;49.346;8.798;2023-03-20T03:58:50;100494.25;;;12.63;76.86
61384;BME280;63511;49.346;8.798;2023-03-20T04:01:17;100483.25;;;12.63;77.11
61384;BME280;63511;49.346;8.798;2023-03-20T04:03:47;100481.16;;;12.03;79.84
61384;BME280;63511;49.346;8.798;2023-03-20T04:06:14;100489.16;;;11.96;80.74
61384;BME280;63511;49.346;8.798;2023-03-20T04:08:42;100490.41;;;12.03;81.25
61384;BME280;63511;49.346;8.798;2023-03-20T04:11:08;100490.69;;;12.33;79.77
61384;BME280;63511;49.346;8.798;2023-03-20T04:13:39;100490.53;;;12.17;80.08
61384;BME280;63511;49.346;8.798;2023-03-20T04:16:06;100498.19;;;11.92;80.41
61384;BME280;63511;49.346;8.798;2023-03-20T04:18:46;100493.53;;;11.99;80.71
61384;BME280;63511;49.346;8.798;2023-03-20T04:21:13;100506.59;;;11.91;81.65
61384;BME280;63511;49.346;8.798;2023-03-20T04:23:54;100514.94;;;11.90;81.44
61384;BME280;63511;49.346;8.798;2023-03-20T04:26:20;100512.09;;;11.73;81.89
61384;BME280;63511;49.346;8.798;2023-03-20T04:28:47;100520.88;;;12.04;81.61
61384;BME280;63511;49.346;8.798;2023-03-20T04:31:13;100508.13;;;12.29;79.79
61384;BME280;63511;49.346;8.798;2023-03-20T04:33:40;100517.28;;;12.01;80.18
61384;BME280;63511;49.346;8.798;2023-03-20T04:36:08;100519.53;;;12.09;81.01
61384;BME280;63511;49.346;8.798;2023-03-20T04:38:35;100526.53;;;12.26;80.38
61384;BME280;63511;49.346;8.798;2023-03-20T04:41:01;100526.25;;;12.09;80.94
61384;BME280;63511;49.346;8.798;2023-03-20T04:43:28;100527.22;;;12.11;81.20
61384;BME280;63511;49.346;8.798;2023-03-20T04:45:54;100529.47;;;12.32;79.78
61384;BME280;63511;49.346;8.798;2023-03-20T04:48:21;100530.34;;;12.20;80.15
61384;BME280;63511;49.346;8.798;2023-03-20T04:50:47;100528.19;;;12.26;79.99
61384;BME280;63511;49.346;8.798;2023-03-20T04:53:16;100530.34;;;12.33;80.14
61384;BME280;63511;49.346;8.798;2023-03-20T04:55:43;100523.84;;;12.64;78.69
61384;BME280;63511;49.346;8.798;2023-03-20T04:58:09;100521.25;;;12.50;79.11
61384;BME280;63511;49.346;8.798;2023-03-20T05:00:36;100514.88;;;12.69;78.22
61384;BME280;63511;49.346;8.798;2023-03-20T05:03:11;100511.25;;;12.38;79.79
61384;BME280;63511;49.346;8.798;2023-03-20T05:05:38;100510.19;;;12.08;80.42
61384;BME280;63511;49.346;8.798;2023-03-20T05:08:04;100519.13;;;12.03;81.12
61384;BME280;63511;49.346;8.798;2023-03-20T05:10:33;100519.22;;;11.78;81.84
61384;BME280;63511;49.346;8.798;2023-03-20T05:13:02;100524.69;;;11.84;81.80
61384;BME280;63511;49.346;8.798;2023-03-20T05:15:28;100528.59;;;11.68;83.41
61384;BME280;63511;49.346;8.798;2023-03-20T05:17:55;100536.44;;;11.84;82.82
61384;BME280;63511;49.346;8.798;2023-03-20T05:20:21;100541.06;;;11.65;83.60
61384;BME280;63511;49.346;8.798;2023-03-20T05:22:48;100536.25;;;11.94;82.38
61384;BME280;63511;49.346;8.798;2023-03-20T05:25:15;100543.97;;;12.35;81.22
61384;BME280;63511;49.346;8.798;2023-03-20T05:27:44;100544.19;;;12.12;82.01
61384;BME280;63511;49.346;8.798;2023-03-20T05:30:11;100536.28;;;12.20;81.86
61384;BME280;63511;49.346;8.798;2023-03-20T05:32:38;100538.72;;;12.06;82.37
61384;BME280;63511;49.346;8.798;2023-03-20T05:35:05;100546.97;;;11.90;82.37
61384;BME280;63511;49.346;8.798;2023-03-20T05:37:33;100536.88;;;12.43;80.62
61384;BME280;63511;49.346;8.798;2023-03-20T05:39:59;100540.47;;;12.33;81.12
61384;BME280;63511;49.346;8.798;2023-03-20T05:42:28;100558.44;;;11.85;83.05
61384;BME280;63511;49.346;8.798;2023-03-20T05:44:56;100556.25;;;12.16;82.47
61384;BME280;63511;49.346;8.798;2023-03-20T05:47:22;100562.59;;;12.22;82.16
61384;BME280;63511;49.346;8.798;2023-03-20T05:49:49;100555.47;;;12.17;82.50
61384;BME280;63511;49.346;8.798;2023-03-20T05:52:16;100556.03;;;12.13;82.95
61384;BME280;63511;49.346;8.798;2023-03-20T05:54:42;100553.31;;;12.23;81.86
61384;BME280;63511;49.346;8.798;2023-03-20T05:57:09;100543.31;;;12.38;81.84
61384;BME280;63511;49.346;8.798;2023-03-20T05:59:35;100545.13;;;12.14;82.33
61384;BME280;63511;49.346;8.798;2023-03-20T06:02:06;100540.75;;;12.24;81.69
61384;BME280;63511;49.346;8.798;2023-03-20T06:04:32;100543.66;;;12.04;82.37
61384;BME280;63511;49.346;8.798;2023-03-20T06:06:59;100549.81;;;12.21;82.05
61384;BME280;63511;49.346;8.798;2023-03-20T06:09:25;100545.81;;;12.51;80.64
61384;BME280;63511;49.346;8.798;2023-03-20T06:11:52;100551.28;;;12.17;81.56
61384;BME280;63511;49.346;8.798;2023-03-20T06:14:18;100537.53;;;12.40;81.80
61384;BME280;63511;49.346;8.798;2023-03-20T06:16:45;100528.69;;;12.20;82.58
61384;BME280;63511;49.346;8.798;2023-03-20T06:19:13;100527.13;;;12.22;82.60
61384;BME280;63511;49.346;8.798;2023-03-20T06:21:39;100531.88;;;12.18;82.53
61384;BME280;63511;49.346;8.798;2023-03-20T06:24:06;100542.13;;;12.19;83.66
61384;BME280;63511;49.346;8.798;2023-03-20T06:26:34;100543.78;;;12.19;83.49
61384;BME280;63511;49.346;8.798;2023-03-20T06:29:01;100556.22;;;12.03;83.66
61384;BME280;63511;49.346;8.798;2023-03-20T06:31:27;100564.88;;;11.93;83.73
61384;BME280;63511;49.346;8.798;2023-03-20T06:33:54;100560.31;;;12.01;83.61
61384;BME280;63511;49.346;8.798;2023-03-20T06:36:22;100568.59;;;11.98;83.94
61384;BME280;63511;49.346;8.798;2023-03-20T06:38:48;100584.81;;;11.88;84.08
61384;BME280;63511;49.346;8.798;2023-03-20T06:41:14;100582.69;;;11.95;83.86
61384;BME280;63511;49.346;8.798;2023-03-20T06:43:41;100579.13;;;12.17;82.87
61384;BME280;63511;49.346;8.798;2023-03-20T06:46:08;100574.94;;;12.18;82.05
61384;BME280;63511;49.346;8.798;2023-03-20T06:48:35;100578.34;;;12.18;82.57
61384;BME280;63511;49.346;8.798;2023-03-20T06:51:01;100578.84;;;12.26;82.20
61384;BME280;63511;49.346;8.798;2023-03-20T06:53:29;100587.19;;;11.99;83.30
61384;BME280;63511;49.346;8.798;2023-03-20T06:55:57;100584.69;;;12.12;83.08
61384;BME280;63511;49.346;8.798;2023-03-20T06:58:24;100583.31;;;12.30;82.06
61384;BME280;63511;49.346;8.798;2023-03-20T07:00:51;100582.94;;;12.11;82.60
61384;BME280;63511;49.346;8.798;2023-03-20T07:03:18;100590.81;;;12.42;81.64
61384;BME280;63511;49.346;8.798;2023-03-20T07:05:45;100586.25;;;12.62;80.90
61384;BME280;63511;49.346;8.798;2023-03-20T07:08:11;100587.59;;;12.44;81.07
61384;BME280;63511;49.346;8.798;2023-03-20T07:10:40;100594.31;;;12.30;81.65
61384;BME280;63511;49.346;8.798;2023-03-20T07:13:07;100597.63;;;12.16;81.78
61384;BME280;63511;49.346;8.798;2023-03-20T07:15:35;100596.06;;;12.18;81.28
61384;BME280;63511;49.346;8.798;2023-03-20T07:18:02;100595.69;;;12.25;82.20
61384;BME280;63511;49.346;8.798;2023-03-20T07:20:28;100596.06;;;12.45;82.01
61384;BME280;63511;49.346;8.798;2023-03-20T07:22:58;100596.38;;;12.62;80.89
61384;BME280;63511;49.346;8.798;2023-03-20T07:25:24;100592.97;;;12.22;81.63
61384;BME280;63511;49.346;8.798;2023-03-20T07:27:52;100595.59;;;12.11;82.66
61384;BME280;63511;49.346;8.798;2023-03-20T07:30:18;100592.19;;;12.50;81.75
61384;BME280;63511;49.346;8.798;2023-03-20T07:32:45;100590.63;;;12.25;81.40
61384;BME280;63511;49.346;8.798;2023-03-20T07:35:13;100592.97;;;12.22;81.65
61384;BME280;63511;49.346;8.798;2023-03-20T07:37:39;100597.94;;;12.34;81.39
61384;BME280;63511;49.346;8.798;2023-03-20T07:40:06;100603.56;;;12.30;81.45
61384;BME280;63511;49.346;8.798;2023-03-20T07:42:33;100600.06;;;12.02;82.01
61384;BME280;63511;49.346;8.798;2023-03-20T07:45:00;100595.41;;;12.47;81.29
61384;BME280;63511;49.346;8.798;2023-03-20T07:47:27;100592.94;;;11.96;83.11
61384;BME280;63511;49.346;8.798;2023-03-20T07:49:54;100589.06;;;12.27;82.04
61384;BME280;63511;49.346;8.798;2023-03-20T07:52:20;100587.25;;;12.38;80.84
61384;BME280;63511;49.346;8.798;2023-03-20T07:54:47;100583.00;;;12.65;80.73
61384;BME280;63511;49.346;8.798;2023-03-20T07:57:13;100593.66;;;12.46;80.74
61384;BME280;63511;49.346;8.798;2023-03-20T07:59:41;100596.38;;;12.49;81.29
61384;BME280;63511;49.346;8.798;2023-03-20T08:02:10;100594.16;;;12.54;80.73
61384;BME280;63511;49.346;8.798;2023-03-20T08:04:39;100594.03;;;12.26;81.25
61384;BME280;63511;49.346;8.798;2023-03-20T08:07:05;100594.31;;;12.44;81.32
61384;BME280;63511;49.346;8.798;2023-03-20T08:09:32;100596.28;;;12.61;80.66
61384;BME280;63511;49.346;8.798;2023-03-20T08:11:58;100596.63;;;12.80;79.71
61384;BME280;63511;49.346;8.798;2023-03-20T08:14:25;100605.94;;;12.53;80.98
61384;BME280;63511;49.346;8.798;2023-03-20T08:16:51;100595.00;;;12.54;81.36
61384;BME280;63511;49.346;8.798;2023-03-20T08:19:19;100597.56;;;12.41;81.19
61384;BME280;63511;49.346;8.798;2023-03-20T08:21:46;100602.28;;;12.89;80.31
61384;BME280;63511;49.346;8.798;2023-03-20T08:24:14;100599.47;;;12.71;80.28
61384;BME280;63511;49.346;8.798;2023-03-20T08:26:40;100601.41;;;12.89;80.25
61384;BME280;63511;49.346;8.798;2023-03-20T08:29:08;100605.44;;;12.72;79.99
61384;BME280;63511;49.346;8.798;2023-03-20T08:31:35;100614.72;;;12.58;80.33
61384;BME280;63511;49.346;8.798;2023-03-20T08:34:01;100616.06;;;12.40;81.41
61384;BME280;63511;49.346;8.798;2023-03-20T08:36:29;100606.63;;;12.38;81.84
61384;BME280;63511;49.346;8.798;2023-03-20T08:38:56;100616.75;;;12.38;82.37
61384;BME280;63511;49.346;8.798;2023-03-20T08:41:31;100621.50;;;12.46;81.69
61384;BME280;63511;49.346;8.798;2023-03-20T08:43:57;100621.00;;;12.39;82.66
61384;BME280;63511;49.346;8.798;2023-03-20T08:46:25;100614.69;;;12.71;80.67
61384;BME280;63511;49.346;8.798;2023-03-20T08:48:52;100621.03;;;12.52;81.42
61384;BME280;63511;49.346;8.798;2023-03-20T08:51:18;100628.97;;;12.18;83.03
61384;BME280;63511;49.346;8.798;2023-03-20T08:53:46;100627.56;;;12.48;81.77
61384;BME280;63511;49.346;8.798;2023-03-20T08:56:12;100626.78;;;12.62;81.41
61384;BME280;63511;49.346;8.798;2023-03-20T08:58:39;100631.81;;;12.23;81.90
61384;BME280;63511;49.346;8.798;2023-03-20T09:01:05;100626.19;;;12.27;82.60
61384;BME280;63511;49.346;8.798;2023-03-20T09:03:33;100627.22;;;12.04;82.97
61384;BME280;63511;49.346;8.798;2023-03-20T09:06:00;100627.44;;;12.33;82.26
61384;BME280;63511;49.346;8.798;2023-03-20T09:08:27;100638.06;;;12.41;81.64
61384;BME280;63511;49.346;8.798;2023-03-20T09:10:55;100646.16;;;12.35;81.82
61384;BME280;63511;49.346;8.798;2023-03-20T09:13:21;100644.72;;;12.52;81.45
61384;BME280;63511;49.346;8.798;2023-03-20T09:15:47;100644.88;;;12.55;81.17
61384;BME280;63511;49.346;8.798;2023-03-20T09:18:14;100644.22;;;12.58;80.95
61384;BME280;63511;49.346;8.798;2023-03-20T09:20:40;100658.44;;;12.43;81.93
61384;BME280;63511;49.346;8.798;2023-03-20T09:23:07;100655.22;;;12.45;81.08
61384;BME280;63511;49.346;8.798;2023-03-20T09:25:33;100655.28;;;12.33;81.51
61384;BME280;63511;49.346;8.798;2023-03-20T09:28:01;100656.75;;;12.30;82.02
61384;BME280;63511;49.346;8.798;2023-03-20T09:30:27;100659.13;;;12.53;80.95
61384;BME280;63511;49.346;8.798;2023-03-20T09:32:54;100659.47;;;12.20;81.85
61384;BME280;63511;49.346;8.798;2023-03-20T09:35:20;100661.81;;;12.17;82.75
61384;BME280;63511;49.346;8.798;2023-03-20T09:37:47;100665.47;;;12.09;82.74
61384;BME280;63511;49.346;8.798;2023-03-20T09:40:18;100669.09;;;12.12;82.36
61384;BME280;63511;49.346;8.798;2023-03-20T09:42:48;100670.06;;;12.14;82.02
61384;BME280;63511;49.346;8.798;2023-03-20T09:45:18;100670.66;;;12.23;82.47
61384;BME280;63511;49.346;8.798;2023-03-20T09:47:49;100673.72;;;12.31;81.67
61384;BME280;63511;49.346;8.798;2023-03-20T09:50:18;100674.19;;;12.25;82.53
61384;BME280;63511;49.346;8.798;2023-03-20T09:52:52;100678.66;;;12.29;82.38
61384;BME280;63511;49.346;8.798;2023-03-20T09:55:21;100672.25;;;12.21;82.75
61384;BME280;63511;49.346;8.798;2023-03-20T09:57:49;100679.44;;;12.28;82.13
61384;BME280;63511;49.346;8.798;2023-03-20T10:00:18;100674.78;;;12.34;82.57
61384;BME280;63511;49.346;8.798;2023-03-20T10:02:47;100671.06;;;12.29;82.31
61384;BME280;63511;49.346;8.798;2023-03-20T10:05:17;100669.13;;;12.39;81.48
61384;BME280;63511;49.346;8.798;2023-03-20T10:07:44;100661.38;;;12.62;81.13
61384;BME280;63511;49.346;8.798;2023-03-20T10:10:11;100662.53;;;12.80;80.27
61384;BME280;63511;49.346;8.798;2023-03-20T10:12:43;100668.78;;;12.72;79.59
61384;BME280;63511;49.346;8.798;2023-03-20T10:15:14;100675.31;;;12.82;79.98
61384;BME280;63511;49.346;8.798;2023-03-20T10:17:45;100670.53;;;12.86;79.92
61384;BME280;63511;49.346;8.798;2023-03-20T10:20:19;100662.63;;;12.95;79.44
61384;BME280;63511;49.346;8.798;2023-03-20T10:22:48;100659.78;;;13.03;79.77
61384;BME280;63511;49.346;8.798;2023-03-20T10:25:21;100662.03;;;13.25;78.51
61384;BME280;63511;49.346;8.798;2023-03-20T10:27:48;100663.69;;;13.25;78.69
61384;BME280;63511;49.346;8.798;2023-03-20T10:30:20;100673.66;;;13.49;77.58
61384;BME280;63511;49.346;8.798;2023-03-20T10:32:54;100668.91;;;13.69;77.45
61384;BME280;63511;49.346;8.798;2023-03-20T10:35:22;100657.78;;;13.52;77.11
61384;BME280;63511;49.346;8.798;2023-03-20T10:37:56;100658.56;;;13.93;75.17
61384;BME280;63511;49.346;8.798;2023-03-20T10:40:28;100656.28;;;13.83;75.83
61384;BME280;63511;49.346;8.798;2023-03-20T10:42:56;100657.59;;;13.63;75.86
61384;BME280;63511;49.346;8.798;2023-03-20T10:45:36;100656.47;;;14.01;75.03
61384;BME280;63511;49.346;8.798;2023-03-20T10:48:09;100643.38;;;14.37;74.25
61384;BME280;63511;49.346;8.798;2023-03-20T10:50:39;100648.69;;;14.27;73.25
61384;BME280;63511;49.346;8.798;2023-03-20T10:53:06;100646.69;;;14.66;72.31
61384;BME280;63511;49.346;8.798;2023-03-20T10:55:33;100643.97;;;14.33;71.98
61384;BME280;63511;49.346;8.798;2023-03-20T10:58:04;100647.66;;;14.53;72.85
61384;BME280;63511;49.346;8.798;2023-03-20T11:00:36;100644.84;;;14.49;71.27
61384;BME280;63511;49.346;8.798;2023-03-20T11:03:03;100644.22;;;14.53;70.76
61384;BME280;63511;49.346;8.798;2023-03-20T11:05:34;100639.06;;;14.51;70.55
61384;BME280;63511;49.346;8.798;2023-03-20T11:08:03;100637.50;;;14.84;69.22
61384;BME280;63511;49.346;8.798;2023-03-20T11:10:31;100643.53;;;14.55;69.98
61384;BME280;63511;49.346;8.798;2023-03-20T11:12:58;100641.09;;;14.42;70.16
61384;BME280;63511;49.346;8.798;2023-03-20T11:15:30;100639.94;;;14.52;69.84
61384;BME280;63511;49.346;8.798;2023-03-20T11:17:57;100630.03;;;14.87;67.88
61384;BME280;63511;49.346;8.798;2023-03-20T11:20:25;100638.88;;;14.94;67.69
61384;BME280;63511;49.346;8.798;2023-03-20T11:22:57;100642.13;;;15.22;67.43
61384;BME280;63511;49.346;8.798;2023-03-20T11:25:27;100644.84;;;15.25;65.78
61384;BME280;63511;49.346;8.798;2023-03-20T11:27:55;100642.72;;;15.32;66.35
61384;BME280;63511;49.346;8.798;2023-03-20T11:30:22;100635.59;;;15.11;66.77
61384;BME280;63511;49.346;8.798;2023-03-20T11:32:49;100638.84;;;15.08;67.06
61384;BME280;63511;49.346;8.798;2023-03-20T11:35:20;100634.91;;;14.68;65.62
61384;BME280;63511;49.346;8.798;2023-03-20T11:37:48;100639.16;;;14.53;67.66
61384;BME280;63511;49.346;8.798;2023-03-20T11:40:20;100630.47;;;14.64;65.67
61384;BME280;63511;49.346;8.798;2023-03-20T11:42:50;100626.06;;;14.76;65.42
61384;BME280;63511;49.346;8.798;2023-03-20T11:45:17;100625.50;;;15.28;63.77
61384;BME280;63511;49.346;8.798;2023-03-20T11:47:47;100624.78;;;15.15;65.35
61384;BME280;63511;49.346;8.798;2023-03-20T11:50:23;100617.69;;;15.09;63.68
61384;BME280;63511;49.346;8.798;2023-03-20T11:52:52;100620.88;;;15.05;63.32
61384;BME280;63511;49.346;8.798;2023-03-20T11:55:24;100610.97;;;15.26;62.99
61384;BME280;63511;49.346;8.798;2023-03-20T11:57:56;100611.81;;;15.57;62.05
61384;BME280;63511;49.346;8.798;2023-03-20T12:00:27;100609.16;;;15.56;60.02
61384;BME280;63511;49.346;8.798;2023-03-20T12:02:54;100602.13;;;16.18;59.61
61384;BME280;63511;49.346;8.798;2023-03-20T12:05:28;100606.44;;;15.85;58.94
61384;BME280;63511;49.346;8.798;2023-03-20T12:07:56;100599.22;;;16.28;57.62
61384;BME280;63511;49.346;8.798;2023-03-20T12:10:25;100594.81;;;16.60;58.52
61384;BME280;63511;49.346;8.798;2023-03-20T12:12:54;100586.03;;;16.19;58.29
61384;BME280;63511;49.346;8.798;2023-03-20T12:15:24;100588.50;;;16.53;57.59
61384;BME280;63511;49.346;8.798;2023-03-20T12:17:52;100586.59;;;16.65;57.72
61384;BME280;63511;49.346;8.798;2023-03-20T12:20:24;100590.81;;;15.95;58.11
61384;BME280;63511;49.346;8.798;2023-03-20T12:22:55;100584.41;;;16.03;58.55
61384;BME280;63511;49.346;8.798;2023-03-20T12:25:26;100586.34;;;15.57;58.67
61384;BME280;63511;49.346;8.798;2023-03-20T12:27:56;100587.03;;;15.55;59.05
61384;BME280;63511;49.346;8.798;2023-03-20T12:30:28;100592.41;;;15.28;58.54
61384;BME280;63511;49.346;8.798;2023-03-20T12:32:57;100582.44;;;15.48;57.86
61384;BME280;63511;49.346;8.798;2023-03-20T12:35:26;100582.00;;;15.40;58.87
61384;BME280;63511;49.346;8.798;2023-03-20T12:37:53;100572.59;;;15.88;58.84
61384;BME280;63511;49.346;8.798;2023-03-20T12:40:19;100569.78;;;15.99;57.65
61384;BME280;63511;49.346;8.798;2023-03-20T12:42:54;100558.44;;;15.77;58.09
61384;BME280;63511;49.346;8.798;2023-03-20T12:45:23;100568.09;;;15.66;58.15
61384;BME280;63511;49.346;8.798;2023-03-20T12:48:00;100562.84;;;15.47;57.82
61384;BME280;63511;49.346;8.798;2023-03-20T12:50:30;100557.88;;;15.64;58.43
61384;BME280;63511;49.346;8.798;2023-03-20T12:53:04;100552.25;;;15.71;58.09
61384;BME280;63511;49.346;8.798;2023-03-20T12:55:35;100553.59;;;15.81;57.62
61384;BME280;63511;49.346;8.798;2023-03-20T12:58:12;100553.66;;;16.34;57.18
61384;BME280;63511;49.346;8.798;2023-03-20T13:00:40;100549.28;;;16.67;56.92
61384;BME280;63511;49.346;8.798;2023-03-20T13:05:59;100543.06;;;16.44;57.41